Have a Safe July 4th! 

Flight Track Log - Related Links

Times and Time Zones

All times are in EDT time to prevent confusion due to time zone crossing. See the ASQ3843 flight status page for this flight to view local times or setup timezone preferences in your user account.

Time Position Orientation Groundspeed Altitude Reporting Facility
EDT Latitude Longitude Course Direction KTS MPH feet Rate Location/Type
Sun 12:09:57 AM 41.9667 -87.9500 169° South 197 227 2,100  Level Chicago TRACON
Sun 12:10:57 AM 41.9667 -88.0167 270° West 234 269 4,100 1,900 Climbing Chicago TRACON
Sun 12:11:57 AM 41.9167 -88.0000 166° South 243 280 5,900 1,986 Climbing Chicago TRACON
Sun 12:12:00 AM 41.8491 -87.5361 157° South  Level Estimated
Sun 12:13:00 AM 41.8047 -87.4130 156° South  Level Estimated
Sun 12:13:16 AM 41.8467 -87.9392 147° Southeast 250 288 8,700  Level Chicago Center
Sun 12:14:00 AM 41.7088 -87.4593 200° South  Level FlightAware Approximate
Sun 12:14:16 AM 41.7831 -87.8972 154° Southeast 259 298 10,800  Level Chicago Center
Sun 12:15:00 AM 41.6652 -87.3358 169° South  Level Estimated
Sun 12:15:17 AM 41.7078 -87.8647 162° South 282 325 11,800  Level Chicago Center
Sun 12:16:17 AM 41.6033 -87.8189 162° South 328 377 12,800 942 Climbing Chicago Center
Sun 12:17:18 AM 41.5089 -87.7786 162° South 350 403 13,700 893 Climbing Chicago Center
Sun 12:18:18 AM 41.4317 -87.7458 162° South 359 413 14,600 1,140 Climbing Chicago Center
Sun 12:19:19 AM 41.3183 -87.6975 162° South 355 409 16,000 1,289 Climbing Chicago Center
Sun 12:20:19 AM 41.2256 -87.6586 163° South 351 404 17,200 1,100 Climbing Chicago Center
Sun 12:21:19 AM 41.1344 -87.6189 162° South 348 400 18,200 1,091 Climbing Chicago Center
Sun 12:22:20 AM 41.0419 -87.5806 163° South 347 399 19,400 1,140 Climbing Chicago Center
Sun 12:23:20 AM 40.9500 -87.5406 162° South 350 403 20,500 1,140 Climbing Chicago Center
Sun 12:24:21 AM 40.8575 -87.5019 162° South 349 402 21,700 1,190 Climbing Chicago Center
Sun 12:25:21 AM 40.7656 -87.4636 162° South 348 400 22,900 1,200 Climbing Chicago Center
Sun 12:26:21 AM 40.6733 -87.4272 163° South 347 399 24,100 1,190 Climbing Chicago Center
Sun 12:27:22 AM 40.5844 -87.3906 163° South 339 390 25,300 1,140 Climbing Chicago Center
Sun 12:28:22 AM 40.4975 -87.3531 162° South 331 381 26,400 1,091 Climbing Chicago Center
Sun 12:29:23 AM 40.4217 -87.3056 155° Southeast 329 379 27,500 1,140 Climbing Chicago Center
Sun 12:30:23 AM 40.3867 -87.1967 113° Southeast 330 380 28,700 1,200 Climbing Chicago Center
Sun 12:31:23 AM 40.3567 -87.0853 109° East 327 376 29,900 1,190 Climbing Chicago Center
Sun 12:32:24 AM 40.3275 -86.9744 109° East 324 373 31,100 1,091 Climbing Chicago Center
Sun 12:33:24 AM 40.2992 -86.8617 108° East 325 374 32,100 1,000 Climbing Chicago Center
Sun 12:34:24 AM 40.2703 -86.7472 108° East 330 380 33,100 942 Climbing Chicago Center
Sun 12:35:25 AM 40.2400 -86.6328 109° East 332 382 34,000 843 Climbing Chicago Center
Sun 12:36:25 AM 40.2092 -86.5150 109° East 337 388 34,800 500 Climbing Chicago Center
Sun 12:37:25 AM 40.1783 -86.3950 109° East 341 392 35,000 99 Climbing Chicago Center
Sun 12:38:26 AM 40.1439 -86.2644 109° East 357 411 35,000  Level Chicago Center
Sun 12:39:23 AM 40.1044 -86.1244 110° East 396 456 35,000  Level Indianapolis Center
Sun 12:40:23 AM 40.0667 -85.9819 109° East 410 472 35,000  Level Indianapolis Center
Sun 12:41:24 AM 40.0289 -85.8414 109° East 409 471 35,000  Level Indianapolis Center
Sun 12:42:24 AM 39.9911 -85.7056 110° East 401 461 35,000  Level Indianapolis Center
Sun 12:43:24 AM 39.9533 -85.5658 109° East 408 470 35,000  Level Indianapolis Center
Sun 12:44:24 AM 39.9136 -85.4247 110° East 414 476 35,000  Level Indianapolis Center
Sun 12:45:25 AM 39.8736 -85.2811 110° East 421 484 35,000  Level Indianapolis Center
Sun 12:46:25 AM 39.8353 -85.1394 109° East 418 481 35,000  Level Indianapolis Center
Sun 12:47:25 AM 39.7950 -84.9994 110° East 415 478 35,000  Level Indianapolis Center
Sun 12:48:25 AM 39.7539 -84.8517 110° East 414 476 35,000  Level Indianapolis Center
Sun 12:49:26 AM 39.7144 -84.7108 110° East 413 475 35,000  Level Indianapolis Center
Sun 12:50:26 AM 39.6739 -84.5700 110° East 414 476 35,000  Level Indianapolis Center
Sun 12:51:26 AM 39.6322 -84.4292 111° Southeast 415 478 35,000  Level Indianapolis Center
Sun 12:52:26 AM 39.5936 -84.2889 110° East 412 474 35,000  Level Indianapolis Center
Sun 12:53:27 AM 39.5533 -84.1522 111° Southeast 407 468 35,000  Level Indianapolis Center
Sun 12:54:27 AM 39.5131 -84.0128 110° East 410 472 35,000  Level Indianapolis Center
Sun 12:55:27 AM 39.4725 -83.8728 111° Southeast 415 478 35,000  Level Indianapolis Center
Sun 12:56:27 AM 39.4306 -83.7300 111° Southeast 421 484 35,000  Level Indianapolis Center
Sun 12:57:27 AM 39.3878 -83.5872 111° Southeast 425 489 35,000  Level Indianapolis Center
Sun 12:58:28 AM 39.3453 -83.4433 111° Southeast 427 491 35,000  Level Indianapolis Center
Sun 12:59:28 AM 39.3025 -83.3008 111° Southeast 425 489 35,000  Level Indianapolis Center
Sun 01:00:28 AM 39.2611 -83.1575 110° East 425 489 35,000  Level Indianapolis Center
Sun 01:01:28 AM 39.2186 -83.0164 111° Southeast 421 484 35,000  Level Indianapolis Center
Sun 01:02:29 AM 39.1756 -82.8744 111° Southeast 422 486 35,000  Level Indianapolis Center
Sun 01:03:29 AM 39.1392 -82.7517 111° Southeast 420 483 35,000  Level Indianapolis Center
Sun 01:04:29 AM 39.0953 -82.6097 112° Southeast 422 486 35,000  Level Indianapolis Center
Sun 01:05:29 AM 39.0522 -82.4708 112° Southeast 419 482 35,000  Level Indianapolis Center
Sun 01:06:30 AM 39.0092 -82.3306 112° Southeast 421 484 35,000  Level Indianapolis Center
Sun 01:07:30 AM 38.9667 -82.1942 112° Southeast 412 474 35,000  Level Indianapolis Center
Sun 01:08:30 AM 38.9242 -82.0556 111° Southeast 415 478 35,000  Level Indianapolis Center
Sun 01:09:30 AM 38.8811 -81.9189 112° Southeast 413 475 35,000  Level Indianapolis Center
Sun 01:10:31 AM 38.8383 -81.7819 112° Southeast 413 475 35,000  Level Indianapolis Center
Sun 01:11:31 AM 38.7953 -81.6442 112° Southeast 413 475 35,000  Level Indianapolis Center
Sun 01:12:31 AM 38.7436 -81.4867 113° Southeast 421 484 35,000  Level Indianapolis Center
Sun 01:13:31 AM 38.7011 -81.3511 112° Southeast 413 475 35,000  Level Indianapolis Center
Sun 01:14:32 AM 38.6572 -81.2156 112° Southeast 425 489 35,000  Level Indianapolis Center
Sun 01:15:32 AM 38.6122 -81.0778 113° Southeast 419 482 35,000  Level Indianapolis Center
Sun 01:16:32 AM 38.5669 -80.9378 112° Southeast 426 490 35,000  Level Indianapolis Center
Sun 01:17:32 AM 38.5211 -80.7983 113° Southeast 428 493 35,000  Level Indianapolis Center
Sun 01:18:33 AM 38.4764 -80.6594 112° Southeast 424 488 35,000  Level Indianapolis Center
Sun 01:19:33 AM 38.4294 -80.5197 113° Southeast 426 490 35,000  Level Indianapolis Center
Sun 01:20:44 AM 38.3783 -80.3700 113° Southeast 423 487 35,000  Level Washington Center
Sun 01:21:44 AM 38.3319 -80.2267 112° Southeast 423 487 35,000  Level Washington Center
Sun 01:22:42 AM 38.2833 -80.0781 113° Southeast 423 487 35,000  Level Washington Center
Sun 01:23:42 AM 38.2364 -79.9406 113° Southeast 423 487 35,000  Level Washington Center
Sun 01:24:42 AM 38.1911 -79.8031 113° Southeast 423 487 35,000  Level Washington Center
Sun 01:25:42 AM 38.1439 -79.6631 113° Southeast 423 487 35,000  Level Washington Center
Sun 01:26:42 AM 38.0983 -79.5261 113° Southeast 423 487 35,000  Level Washington Center
Sun 01:27:42 AM 38.0564 -79.4025 113° Southeast 423 487 35,000  Level Washington Center
Sun 01:28:42 AM 38.0086 -79.2631 113° Southeast 423 487 35,000 -400 Level Washington Center
Sun 01:29:42 AM 37.9608 -79.1211 113° Southeast 423 487 34,200 -893 Descending Washington Center
Sun 01:30:43 AM 37.9106 -78.9792 114° Southeast 423 487 33,200 -950 Descending Washington Center
Sun 01:31:42 AM 37.8622 -78.8428 114° Southeast 423 487 32,300 -1,000 Descending Washington Center
Sun 01:32:43 AM 37.8100 -78.6908 113° Southeast 423 487 31,200 -1,000 Descending Washington Center
Sun 01:33:42 AM 37.7614 -78.5522 114° Southeast 423 487 30,300 -958 Descending Washington Center
Sun 01:34:42 AM 37.7125 -78.4139 114° Southeast 428 493 29,300 -950 Descending Washington Center
Sun 01:35:42 AM 37.6617 -78.2703 114° Southeast 433 498 28,400 -950 Descending Washington Center
Sun 01:36:42 AM 37.6083 -78.1319 116° Southeast 433 498 27,400 -927 Descending Washington Center
Sun 01:37:45 AM 37.5569 -77.9914 115° Southeast 433 498 26,500 -950 Descending Washington Center
Sun 01:38:42 AM 37.5056 -77.8511 115° Southeast 433 498 25,500 -974 Descending Washington Center
Sun 01:39:42 AM 37.4558 -77.7136 114° Southeast 433 498 24,600 -950 Descending Washington Center
Sun 01:40:42 AM 37.4061 -77.5764 114° Southeast 428 493 23,600 -942 Descending Washington Center
Sun 01:41:43 AM 37.3561 -77.4417 115° Southeast 428 493 22,700 -1,050 Descending Washington Center
Sun 01:42:42 AM 37.3119 -77.3206 115° Southeast 422 486 21,500 -1,311 Descending Washington Center
Sun 01:43:42 AM 37.2617 -77.1889 116° Southeast 422 486 20,100 -1,400 Descending Washington Center
Sun 01:44:42 AM 37.2172 -77.0628 114° Southeast 411 473 18,700 -1,488 Descending Washington Center
Sun 01:45:43 AM 37.1686 -76.9394 116° Southeast 399 459 17,100 -1,967 Descending Washington Center
Sun 01:46:44 AM 37.1242 -76.8161 114° Southeast 394 453 14,700 -2,231 Descending Washington Center
Sun 01:47:44 AM 37.0833 -76.7089 115° Southeast 368 423 12,600 -2,186 Descending Washington Center
Sun 01:48:42 AM 37.0447 -76.6014 114° Southeast 323 372 10,400 -1,881 Descending Washington Center
Sun 01:49:42 AM 37.0183 -76.5153 111° Southeast 291 335 8,900 -1,700 Descending Washington Center
Sun 01:50:42 AM 37.0044 -76.4214 100° East 268 308 7,000 -1,800 Descending Washington Center
Sun 01:51:42 AM 36.9944 -76.3356 98° East 256 295 5,300 -1,510 Descending Washington Center
Sun 01:53:09 AM 36.9806 -76.2236 99° East 218 251 3,300 -1,379 Descending Washington Center

Login

Don't have an account? Register now (free) for customized features, flight alerts, and more!